createdAt,value
2022-10-07T00:00:55.849Z,8.32
2022-10-07T00:03:25.991Z,4.63
2022-10-07T00:06:15.266Z,11.33
2022-10-07T00:08:44.977Z,9.18
2022-10-07T00:11:15.063Z,15.30
2022-10-07T00:13:43.679Z,11.40
2022-10-07T00:16:22.571Z,12.02
2022-10-07T00:18:49.576Z,14.07
2022-10-07T00:21:18.004Z,8.00
2022-10-07T00:23:46.609Z,14.88
2022-10-07T00:26:17.563Z,12.88
2022-10-07T00:31:17.854Z,11.75
2022-10-07T00:33:45.520Z,10.13
2022-10-07T00:36:28.833Z,14.73
2022-10-07T00:39:01.077Z,13.32
2022-10-07T00:41:45.554Z,17.27
2022-10-07T00:44:33.932Z,7.97
2022-10-07T00:47:19.482Z,15.30
2022-10-07T00:50:11.520Z,16.27
2022-10-07T00:52:54.030Z,12.43
2022-10-07T00:55:24.701Z,15.05
2022-10-07T00:57:55.275Z,15.05
2022-10-07T01:00:24.264Z,6.13
2022-10-07T01:02:52.167Z,13.00
2022-10-07T01:05:20.473Z,13.00
2022-10-07T01:07:50.563Z,7.55
2022-10-07T01:10:20.405Z,18.40
2022-10-07T01:13:16.335Z,10.13
2022-10-07T01:16:03.444Z,10.48
2022-10-07T01:18:35.212Z,9.93
2022-10-07T01:21:12.007Z,10.27
2022-10-07T01:23:53.385Z,12.10
2022-10-07T01:26:29.195Z,12.25
2022-10-07T01:28:59.398Z,16.08
2022-10-07T01:31:38.459Z,11.15
2022-10-07T01:34:08.861Z,21.08
2022-10-07T01:36:37.437Z,10.07
2022-10-07T01:39:12.646Z,16.70
2022-10-07T01:41:40.422Z,16.42
2022-10-07T01:44:10.650Z,16.77
2022-10-07T01:46:38.057Z,13.30
2022-10-07T01:49:08.153Z,18.60
2022-10-07T01:51:38.900Z,7.82
2022-10-07T01:54:27.116Z,10.65
2022-10-07T01:57:12.947Z,11.27
2022-10-07T01:59:57.863Z,16.45
2022-10-07T02:02:42.693Z,12.88
2022-10-07T02:05:30.692Z,10.48
2022-10-07T02:08:00.342Z,12.20
2022-10-07T02:10:37.664Z,11.13
2022-10-07T02:13:39.970Z,14.82
2022-10-07T02:16:18.761Z,17.38
2022-10-07T02:18:50.129Z,9.73
2022-10-07T02:21:21.116Z,11.82
2022-10-07T02:26:19.984Z,17.10
2022-10-07T02:28:49.780Z,10.73
2022-10-07T02:31:20.605Z,5.07
2022-10-07T02:33:48.134Z,13.25
2022-10-07T02:36:21.662Z,12.98
2022-10-07T02:38:49.393Z,17.73
2022-10-07T02:41:41.834Z,9.02
2022-10-07T02:44:25.894Z,15.60
2022-10-07T02:47:08.833Z,14.30
2022-10-07T02:49:39.630Z,15.18
2022-10-07T02:52:16.828Z,18.40
2022-10-07T02:55:00.332Z,17.35
2022-10-07T02:57:36.308Z,15.15
2022-10-07T03:00:10.964Z,9.40
2022-10-07T03:02:51.377Z,9.73
2022-10-07T03:05:21.492Z,17.27
2022-10-07T03:07:52.778Z,13.10
2022-10-07T03:10:19.851Z,19.10
2022-10-07T03:12:46.892Z,16.27
2022-10-07T03:15:14.032Z,11.63
2022-10-07T03:17:41.165Z,14.88
2022-10-07T03:20:09.599Z,19.63
2022-10-07T03:22:36.582Z,19.90
2022-10-07T03:25:03.716Z,21.63
2022-10-07T03:27:30.641Z,15.60
2022-10-07T03:29:58.757Z,16.08
2022-10-07T03:32:29.861Z,14.27
2022-10-07T03:34:56.785Z,18.00
2022-10-07T03:37:24.472Z,17.50
2022-10-07T03:39:52.761Z,13.88
2022-10-07T03:42:21.061Z,18.92
2022-10-07T03:44:50.173Z,9.98
2022-10-07T03:47:17.878Z,14.07
2022-10-07T03:49:45.364Z,15.32
2022-10-07T03:52:12.335Z,13.43
2022-10-07T03:54:39.530Z,23.20
2022-10-07T03:57:26.710Z,15.52
2022-10-07T03:59:53.754Z,9.73
2022-10-07T04:02:23.513Z,8.43
2022-10-07T04:04:52.869Z,16.65
2022-10-07T04:07:22.883Z,12.88
2022-10-07T04:09:49.857Z,15.80
2022-10-07T04:12:16.815Z,14.05
2022-10-07T04:14:43.775Z,12.95
2022-10-07T04:17:10.803Z,15.60
2022-10-07T04:19:37.789Z,13.65
2022-10-07T04:22:08.863Z,11.10
2022-10-07T04:24:36.473Z,24.20
2022-10-07T04:27:05.206Z,17.00
2022-10-07T04:29:36.730Z,12.82
2022-10-07T04:32:06.032Z,16.98
2022-10-07T04:34:32.981Z,16.67
2022-10-07T04:37:01.421Z,26.02
2022-10-07T04:39:48.919Z,21.95
2022-10-07T04:42:50.800Z,14.30
2022-10-07T04:45:18.164Z,14.82
2022-10-07T04:47:46.585Z,13.90
2022-10-07T04:50:14.060Z,16.45
2022-10-07T04:52:42.640Z,16.85
2022-10-07T04:55:12.502Z,17.05
2022-10-07T04:57:39.426Z,22.08
2022-10-07T05:00:08.382Z,18.45
2022-10-07T05:02:35.766Z,17.35
2022-10-07T05:05:03.269Z,11.70
2022-10-07T05:07:32.031Z,16.40
2022-10-07T05:09:59.647Z,16.00
2022-10-07T05:12:26.722Z,14.73
2022-10-07T05:14:53.741Z,19.38
2022-10-07T05:17:21.630Z,13.70
2022-10-07T05:19:48.630Z,15.10
2022-10-07T05:22:15.624Z,20.40
2022-10-07T05:24:42.532Z,16.10
2022-10-07T05:27:09.428Z,13.38
2022-10-07T05:29:36.405Z,16.55
2022-10-07T05:32:05.193Z,20.02
2022-10-07T05:34:32.868Z,14.82
2022-10-07T05:36:59.792Z,16.88
2022-10-07T05:39:26.709Z,11.77
2022-10-07T05:41:53.615Z,17.77
2022-10-07T05:44:20.558Z,12.60
2022-10-07T05:46:47.558Z,15.40
2022-10-07T05:49:14.469Z,15.73
2022-10-07T05:51:41.859Z,20.25
2022-10-07T05:54:08.815Z,15.13
2022-10-07T05:56:39.142Z,13.05
2022-10-07T05:59:06.087Z,10.93
2022-10-07T06:01:33.094Z,17.00
2022-10-07T06:04:00.092Z,13.13
2022-10-07T06:06:27.062Z,14.35
2022-10-07T06:08:54.282Z,14.52
2022-10-07T06:11:40.169Z,17.60
2022-10-07T06:14:07.341Z,13.07
2022-10-07T06:16:34.375Z,11.75
2022-10-07T06:19:02.027Z,16.65
2022-10-07T06:21:29.012Z,15.75
2022-10-07T06:23:58.017Z,11.10
2022-10-07T06:26:25.481Z,15.40
2022-10-07T06:28:52.429Z,11.60
2022-10-07T06:31:25.746Z,15.85
2022-10-07T06:33:53.077Z,11.13
2022-10-07T06:36:20.160Z,12.75
2022-10-07T06:38:48.975Z,14.55
2022-10-07T06:41:16.975Z,13.27
2022-10-07T06:43:43.918Z,13.20
2022-10-07T06:46:15.661Z,12.27
2022-10-07T06:48:44.597Z,10.30
2022-10-07T06:51:14.883Z,7.18
2022-10-07T06:53:42.605Z,11.05
2022-10-07T06:56:12.314Z,9.07
2022-10-07T06:58:39.295Z,15.93
2022-10-07T07:01:06.299Z,16.63
2022-10-07T07:03:33.524Z,6.13
2022-10-07T07:06:00.514Z,7.35
2022-10-07T07:08:29.189Z,12.40
2022-10-07T07:10:56.519Z,8.05
2022-10-07T07:13:24.783Z,9.85
2022-10-07T07:16:00.211Z,13.85
2022-10-07T07:18:27.220Z,6.57
2022-10-07T07:20:54.186Z,11.25
2022-10-07T07:23:21.116Z,10.07
2022-10-07T07:25:48.044Z,11.27
2022-10-07T07:28:16.232Z,10.40
2022-10-07T07:30:43.285Z,10.77
2022-10-07T07:33:10.427Z,11.25
2022-10-07T07:35:41.568Z,11.07
2022-10-07T07:38:09.191Z,13.43
2022-10-07T07:40:38.184Z,12.85
2022-10-07T07:43:05.937Z,12.55
2022-10-07T07:45:36.731Z,13.13
2022-10-07T07:48:04.385Z,10.07
2022-10-07T07:50:31.324Z,12.40
2022-10-07T07:53:00.276Z,9.75
2022-10-07T07:55:27.245Z,14.02
2022-10-07T07:57:54.193Z,6.53
2022-10-07T08:00:21.175Z,8.73
2022-10-07T08:02:48.800Z,8.90
2022-10-07T08:05:18.048Z,11.60
2022-10-07T08:07:48.579Z,12.25
2022-10-07T08:10:15.749Z,12.15
2022-10-07T08:12:42.634Z,5.22
2022-10-07T08:15:10.927Z,11.13
2022-10-07T08:17:37.823Z,9.85
2022-10-07T08:20:05.124Z,7.93
2022-10-07T08:22:32.094Z,9.63
2022-10-07T08:25:00.334Z,10.50
2022-10-07T08:27:28.356Z,11.70
2022-10-07T08:29:55.343Z,12.32
2022-10-07T08:32:22.278Z,11.73
2022-10-07T08:34:49.220Z,6.43
2022-10-07T08:37:16.214Z,5.75
2022-10-07T08:39:43.201Z,8.68
2022-10-07T08:42:17.547Z,10.48
2022-10-07T08:44:48.555Z,10.48
2022-10-07T08:47:16.275Z,13.48
2022-10-07T08:50:40.649Z,7.25
2022-10-07T08:53:12.471Z,8.07
2022-10-07T08:55:55.506Z,4.22
2022-10-07T08:59:15.953Z,9.82
2022-10-07T09:02:10.741Z,7.73
2022-10-07T09:05:06.728Z,5.93
2022-10-07T09:07:38.889Z,12.77
2022-10-07T09:10:44.342Z,10.80
2022-10-07T09:13:12.865Z,9.65
2022-10-07T09:15:46.333Z,11.90
2022-10-07T09:18:42.043Z,7.78
2022-10-07T09:21:17.267Z,8.70
2022-10-07T09:23:46.027Z,8.95
2022-10-07T09:26:15.347Z,11.35
2022-10-07T09:28:42.685Z,6.80
2022-10-07T09:31:14.682Z,6.70
2022-10-07T09:33:44.930Z,12.25
2022-10-07T09:36:15.075Z,8.77
2022-10-07T09:38:47.590Z,5.00
2022-10-07T09:41:31.377Z,11.35
2022-10-07T09:44:00.411Z,9.82
2022-10-07T09:46:46.595Z,6.10
2022-10-07T09:49:28.717Z,14.25
2022-10-07T09:52:06.322Z,7.85
2022-10-07T09:54:35.575Z,9.05
2022-10-07T09:57:04.857Z,9.35
2022-10-07T09:59:33.938Z,7.00
2022-10-07T10:02:25.628Z,7.70
2022-10-07T10:04:55.323Z,11.63
2022-10-07T10:07:34.037Z,5.93
2022-10-07T10:10:06.234Z,7.55
2022-10-07T10:12:40.643Z,11.80
2022-10-07T10:15:22.929Z,9.27
2022-10-07T10:17:51.109Z,3.87
2022-10-07T10:20:24.350Z,5.80
2022-10-07T10:22:52.789Z,7.53
2022-10-07T10:26:00.965Z,4.00
2022-10-07T10:29:03.003Z,6.68
2022-10-07T10:32:00.443Z,10.02
2022-10-07T10:34:52.886Z,6.85
2022-10-07T10:37:58.272Z,7.80
2022-10-07T10:41:16.582Z,9.95
2022-10-07T10:44:25.224Z,5.85
2022-10-07T10:47:17.376Z,12.52
2022-10-07T10:50:12.326Z,4.68
2022-10-07T10:52:45.502Z,9.25
2022-10-07T10:55:33.335Z,16.40
2022-10-07T10:58:30.469Z,7.85
2022-10-07T11:01:05.469Z,12.60
2022-10-07T11:03:48.300Z,9.45
2022-10-07T11:06:18.295Z,13.70
2022-10-07T11:08:47.603Z,9.47
2022-10-07T11:11:19.969Z,9.02
2022-10-07T11:14:20.406Z,4.07
2022-10-07T11:17:13.741Z,4.60
2022-10-07T11:19:49.835Z,9.27
2022-10-07T11:22:25.166Z,8.23
2022-10-07T11:25:00.311Z,6.28
2022-10-07T11:27:33.484Z,6.55
2022-10-07T11:30:14.867Z,5.25
2022-10-07T11:33:08.731Z,7.40
2022-10-07T11:35:44.008Z,9.95
2022-10-07T11:38:10.901Z,4.70
2022-10-07T11:41:00.972Z,9.65
2022-10-07T11:43:46.786Z,9.68
2022-10-07T11:46:30.435Z,5.10
2022-10-07T11:49:18.966Z,6.75
2022-10-07T11:52:00.375Z,2.33
2022-10-07T11:54:31.915Z,6.65
2022-10-07T11:57:00.760Z,5.70
2022-10-07T11:59:27.712Z,6.18
2022-10-07T12:01:55.361Z,7.13
2022-10-07T12:04:34.030Z,8.10
2022-10-07T12:07:42.742Z,10.05
2022-10-07T12:10:31.819Z,9.68
2022-10-07T12:13:00.485Z,6.15
2022-10-07T12:15:31.870Z,8.90
2022-10-07T12:18:04.948Z,5.15
2022-10-07T12:20:34.873Z,3.40
2022-10-07T12:23:19.956Z,5.05
2022-10-07T12:25:58.950Z,6.30
2022-10-07T12:28:46.191Z,5.25
2022-10-07T12:31:16.163Z,6.80
2022-10-07T12:33:46.384Z,6.13
2022-10-07T12:36:21.311Z,7.25
2022-10-07T12:39:11.933Z,4.45
2022-10-07T12:41:40.623Z,6.32
2022-10-07T12:44:23.074Z,4.97
2022-10-07T12:47:00.991Z,6.18
2022-10-07T12:49:38.614Z,6.97
2022-10-07T12:52:15.907Z,5.28
2022-10-07T12:54:52.175Z,4.35
2022-10-07T12:57:23.327Z,9.52
2022-10-07T12:59:59.425Z,9.75
2022-10-07T13:02:53.747Z,6.40
2022-10-07T13:05:44.776Z,7.85
2022-10-07T13:11:16.067Z,6.45
2022-10-07T13:14:07.203Z,6.93
2022-10-07T13:19:07.052Z,7.22
2022-10-07T13:21:36.957Z,6.13
2022-10-07T13:24:04.158Z,3.80
2022-10-07T13:26:31.394Z,4.75
2022-10-07T13:29:00.800Z,5.90
2022-10-07T13:31:30.873Z,8.25
2022-10-07T13:33:59.806Z,9.50
2022-10-07T13:36:28.855Z,6.97
2022-10-07T13:39:17.858Z,4.03
2022-10-07T13:41:47.825Z,7.88
2022-10-07T13:44:18.501Z,6.63
2022-10-07T13:47:01.447Z,11.65
2022-10-07T13:49:33.386Z,6.50
2022-10-07T13:52:05.012Z,2.67
2022-10-07T13:54:33.850Z,6.20
2022-10-07T13:57:08.928Z,6.60
2022-10-07T13:59:39.093Z,10.10
2022-10-07T14:02:12.427Z,5.13
2022-10-07T14:04:52.405Z,7.68
2022-10-07T14:07:21.488Z,5.47
2022-10-07T14:09:48.432Z,5.68
2022-10-07T14:12:22.944Z,11.63
2022-10-07T14:14:56.112Z,7.35
2022-10-07T14:17:30.479Z,5.32
2022-10-07T14:20:05.942Z,4.85
2022-10-07T14:22:42.050Z,5.53
2022-10-07T14:25:27.754Z,5.15
2022-10-07T14:27:54.676Z,5.03
2022-10-07T14:30:59.499Z,7.70
2022-10-07T14:34:10.616Z,3.92
2022-10-07T14:36:37.649Z,6.30
2022-10-07T14:39:33.596Z,6.20
2022-10-07T14:42:00.963Z,6.53
2022-10-07T14:44:28.290Z,9.75
2022-10-07T14:47:06.482Z,6.90
2022-10-07T14:49:33.605Z,9.35
2022-10-07T14:52:01.094Z,6.63
2022-10-07T14:54:28.387Z,4.78
2022-10-07T14:59:39.191Z,6.45
2022-10-07T15:02:06.800Z,9.45
2022-10-07T15:04:33.829Z,7.88
2022-10-07T15:07:00.864Z,8.00
2022-10-07T15:09:27.843Z,6.80
2022-10-07T15:11:54.755Z,8.20
2022-10-07T15:14:21.760Z,7.63
2022-10-07T15:16:50.471Z,7.10
2022-10-07T15:19:17.520Z,7.00
2022-10-07T15:21:44.526Z,8.63
2022-10-07T15:24:11.464Z,6.63
2022-10-07T15:26:38.487Z,2.97
2022-10-07T15:29:07.967Z,6.80
2022-10-07T15:31:35.028Z,3.70
2022-10-07T15:34:02.087Z,5.47
2022-10-07T15:36:30.175Z,3.70
2022-10-07T15:39:02.230Z,6.35
2022-10-07T15:41:37.877Z,8.80
2022-10-07T15:44:15.447Z,4.47
2022-10-07T15:46:43.274Z,2.33
2022-10-07T15:49:10.273Z,4.38
2022-10-07T15:51:37.497Z,5.25
2022-10-07T15:54:06.090Z,5.13
2022-10-07T15:56:33.889Z,7.93
2022-10-07T15:59:02.216Z,7.72
2022-10-07T16:01:31.858Z,14.07
2022-10-07T16:04:00.917Z,13.15
2022-10-07T16:06:35.311Z,20.38
2022-10-07T16:09:02.768Z,16.55
2022-10-07T16:11:31.327Z,10.40
2022-10-07T16:14:00.133Z,6.35
2022-10-07T16:16:28.369Z,5.18
2022-10-07T16:18:57.946Z,6.93
2022-10-07T16:21:30.615Z,10.98
2022-10-07T16:24:01.298Z,5.97
2022-10-07T16:26:33.968Z,9.05
2022-10-07T16:29:21.118Z,8.23
2022-10-07T16:31:49.336Z,9.25
2022-10-07T16:34:18.636Z,11.80
2022-10-07T16:36:49.886Z,11.35
2022-10-07T16:39:19.258Z,10.75
2022-10-07T16:41:47.523Z,13.15
2022-10-07T16:44:15.380Z,16.45
2022-10-07T16:46:43.181Z,19.70
2022-10-07T16:49:16.878Z,11.88
2022-10-07T16:51:44.835Z,11.75
2022-10-07T16:54:16.077Z,12.15
2022-10-07T16:56:52.615Z,15.15
2022-10-07T16:59:24.618Z,9.27
2022-10-07T17:01:55.715Z,10.02
2022-10-07T17:04:24.769Z,11.95
2022-10-07T17:06:52.171Z,12.32
2022-10-07T17:09:19.255Z,8.23
2022-10-07T17:11:46.863Z,7.95
2022-10-07T17:14:17.035Z,15.75
2022-10-07T17:16:53.056Z,17.77
2022-10-07T17:19:22.463Z,27.38
2022-10-07T17:21:50.280Z,30.85
2022-10-07T17:24:18.566Z,32.53
2022-10-07T17:26:46.414Z,19.77
2022-10-07T17:29:18.348Z,27.10
2022-10-07T17:31:48.369Z,7.78
2022-10-07T17:34:16.590Z,8.10
2022-10-07T17:36:43.972Z,10.52
2022-10-07T17:39:11.267Z,16.55
2022-10-07T17:41:39.315Z,10.32
2022-10-07T17:44:11.761Z,14.13
2022-10-07T17:46:40.177Z,10.85
2022-10-07T17:49:21.099Z,14.80
2022-10-07T17:51:48.131Z,13.02
2022-10-07T17:54:15.253Z,11.82
2022-10-07T17:56:44.608Z,13.90
2022-10-07T17:59:12.400Z,11.00
2022-10-07T18:01:39.320Z,11.45
2022-10-07T18:04:09.989Z,6.78
2022-10-07T18:06:38.591Z,9.05
2022-10-07T18:09:10.378Z,10.23
2022-10-07T18:11:55.994Z,11.75
2022-10-07T18:14:41.852Z,10.18
2022-10-07T18:17:10.574Z,7.13
2022-10-07T18:19:39.768Z,3.97
2022-10-07T18:22:06.930Z,10.80
2022-10-07T18:24:33.921Z,6.55
2022-10-07T18:27:01.540Z,8.35
2022-10-07T18:29:30.339Z,6.63
2022-10-07T18:31:57.369Z,10.35
2022-10-07T18:34:25.036Z,11.70
2022-10-07T18:36:56.309Z,5.13
2022-10-07T18:39:25.050Z,12.55
2022-10-07T18:41:52.009Z,9.73
2022-10-07T18:44:19.183Z,7.60
2022-10-07T18:46:46.226Z,6.88
2022-10-07T18:49:13.971Z,6.15
2022-10-07T18:51:41.301Z,8.18
2022-10-07T18:54:08.388Z,6.70
2022-10-07T18:56:39.941Z,7.40
2022-10-07T18:59:07.958Z,8.13
2022-10-07T19:01:38.838Z,6.65
2022-10-07T19:06:39.760Z,6.70
2022-10-07T19:09:09.631Z,13.45
2022-10-07T19:11:36.646Z,12.20
2022-10-07T19:14:03.954Z,5.30
2022-10-07T19:16:35.751Z,6.63
2022-10-07T19:19:05.755Z,10.05
2022-10-07T19:21:32.933Z,10.35
2022-10-07T19:24:03.499Z,3.80
2022-10-07T19:26:39.624Z,6.05
2022-10-07T19:29:09.346Z,4.80
2022-10-07T19:31:40.540Z,4.72
2022-10-07T19:34:13.585Z,6.80
2022-10-07T19:36:42.663Z,8.82
2022-10-07T19:39:10.790Z,12.10
2022-10-07T19:41:37.820Z,9.10
2022-10-07T19:44:05.909Z,13.27
2022-10-07T19:46:33.683Z,14.48
2022-10-07T19:49:02.411Z,11.93
2022-10-07T19:51:30.700Z,10.10
2022-10-07T19:53:58.850Z,9.10
2022-10-07T19:56:35.681Z,9.85
2022-10-07T19:59:08.314Z,16.05
2022-10-07T20:01:38.863Z,21.75
2022-10-07T20:04:08.573Z,30.27
2022-10-07T20:06:39.506Z,17.98
2022-10-07T20:11:34.083Z,13.10
2022-10-07T20:14:03.553Z,11.52
2022-10-07T20:16:31.270Z,9.68
2022-10-07T20:19:05.867Z,4.95
2022-10-07T20:21:35.955Z,12.25
2022-10-07T20:24:04.324Z,12.30
2022-10-07T20:26:33.509Z,7.43
2022-10-07T20:29:01.981Z,16.05
2022-10-07T20:31:32.186Z,10.55
2022-10-07T20:34:00.210Z,12.25
2022-10-07T20:36:30.157Z,8.60
2022-10-07T20:39:24.873Z,4.95
2022-10-07T20:42:11.581Z,9.98
2022-10-07T20:44:39.361Z,8.77
2022-10-07T20:47:08.923Z,8.15
2022-10-07T20:49:38.660Z,11.65
2022-10-07T20:52:08.472Z,16.75
2022-10-07T20:54:35.438Z,7.43
2022-10-07T20:57:02.375Z,8.70
2022-10-07T20:59:31.052Z,9.93
2022-10-07T21:01:59.129Z,7.95
2022-10-07T21:04:28.389Z,11.77
2022-10-07T21:06:58.591Z,10.75
2022-10-07T21:09:26.104Z,11.23
2022-10-07T21:11:53.860Z,4.82
2022-10-07T21:14:21.465Z,9.85
2022-10-07T21:16:48.942Z,6.60
2022-10-07T21:19:17.246Z,9.43
2022-10-07T21:21:44.431Z,5.18
2022-10-07T21:24:11.547Z,9.65
2022-10-07T21:26:38.491Z,7.00
2022-10-07T21:29:09.375Z,8.38
2022-10-07T21:31:36.307Z,6.80
2022-10-07T21:34:10.499Z,9.65
2022-10-07T21:36:50.281Z,5.25
2022-10-07T21:39:19.086Z,9.65
2022-10-07T21:41:47.487Z,7.57
2022-10-07T21:44:14.972Z,8.93
2022-10-07T21:46:46.644Z,5.40
2022-10-07T21:49:32.430Z,5.28
2022-10-07T21:52:08.036Z,4.00
2022-10-07T21:54:37.517Z,5.70
2022-10-07T21:57:05.251Z,7.20
2022-10-07T21:59:35.137Z,7.32
2022-10-07T22:02:02.320Z,8.65
2022-10-07T22:04:30.882Z,5.50
2022-10-07T22:07:16.402Z,5.80
2022-10-07T22:09:43.348Z,9.48
2022-10-07T22:12:10.584Z,5.53
2022-10-07T22:14:38.060Z,8.13
2022-10-07T22:17:04.992Z,5.88
2022-10-07T22:19:33.122Z,6.15
2022-10-07T22:22:00.062Z,6.32
2022-10-07T22:24:26.992Z,7.35
2022-10-07T22:26:53.930Z,9.48
2022-10-07T22:29:21.880Z,8.70
2022-10-07T22:31:49.122Z,9.32
2022-10-07T22:34:34.415Z,9.38
2022-10-07T22:37:02.134Z,6.22
2022-10-07T22:39:29.479Z,6.57
2022-10-07T22:41:57.367Z,15.55
2022-10-07T22:44:28.231Z,7.53
2022-10-07T22:49:29.549Z,8.85
2022-10-07T22:51:58.425Z,13.55
2022-10-07T22:54:25.551Z,8.10
2022-10-07T22:56:52.500Z,6.47
2022-10-07T22:59:19.412Z,12.77
2022-10-07T23:01:46.337Z,6.00
2022-10-07T23:04:13.281Z,9.68
2022-10-07T23:06:40.264Z,12.23
2022-10-07T23:09:07.223Z,10.10
2022-10-07T23:11:34.596Z,4.78
2022-10-07T23:14:01.593Z,15.23
2022-10-07T23:16:32.508Z,12.18
2022-10-07T23:21:28.817Z,14.43
2022-10-07T23:24:06.925Z,7.47
2022-10-07T23:26:34.847Z,6.53
2022-10-07T23:29:02.509Z,8.35
2022-10-07T23:31:31.818Z,6.47
2022-10-07T23:34:00.371Z,11.23
2022-10-07T23:36:28.271Z,5.18
2022-10-07T23:38:55.682Z,15.38
2022-10-07T23:41:25.434Z,9.30
2022-10-07T23:43:54.563Z,9.88
2022-10-07T23:46:23.026Z,6.72
2022-10-07T23:48:50.631Z,6.68
2022-10-07T23:51:23.318Z,11.30
2022-10-07T23:53:50.915Z,7.22
2022-10-07T23:56:20.862Z,12.20
2022-10-07T23:58:47.866Z,7.47
